createdAt,value
2019-05-03T00:00:42.526Z,8.59
2019-05-03T00:03:12.303Z,8.52
2019-05-03T00:06:01.766Z,8.29
2019-05-03T00:08:28.910Z,8.34
2019-05-03T00:11:15.377Z,8.25
2019-05-03T00:13:42.434Z,8.20
2019-05-03T00:16:18.538Z,8.07
2019-05-03T00:18:50.041Z,8.24
2019-05-03T00:21:19.330Z,8.18
2019-05-03T00:23:46.323Z,8.33
2019-05-03T00:26:13.373Z,8.35
2019-05-03T00:28:42.640Z,8.36
2019-05-03T00:31:15.901Z,8.39
2019-05-03T00:33:48.443Z,8.43
2019-05-03T00:36:39.002Z,7.99
2019-05-03T00:39:22.131Z,7.99
2019-05-03T00:41:49.731Z,8.01
2019-05-03T00:44:16.800Z,7.86
2019-05-03T00:46:43.805Z,7.94
2019-05-03T00:49:11.964Z,8.02
2019-05-03T00:51:39.091Z,8.03
2019-05-03T00:54:08.264Z,8.06
2019-05-03T00:56:35.273Z,8.03
2019-05-03T00:59:02.427Z,7.96
2019-05-03T01:01:29.380Z,8.02
2019-05-03T01:03:58.224Z,8.00
2019-05-03T01:06:25.216Z,8.06
2019-05-03T01:08:52.441Z,7.97
2019-05-03T01:11:24.590Z,7.90
2019-05-03T01:13:58.076Z,7.97
2019-05-03T01:16:27.975Z,8.13
2019-05-03T01:18:58.334Z,8.05
2019-05-03T01:21:27.991Z,7.84
2019-05-03T01:23:58.028Z,7.93
2019-05-03T01:26:25.074Z,7.78
2019-05-03T01:28:52.313Z,7.67
2019-05-03T01:31:23.627Z,7.76
2019-05-03T01:33:51.655Z,7.93
2019-05-03T01:36:18.866Z,7.93
2019-05-03T01:38:48.677Z,7.84
2019-05-03T01:41:21.656Z,7.77
2019-05-03T01:43:52.855Z,7.90
2019-05-03T01:46:23.136Z,7.88
2019-05-03T01:49:12.689Z,7.90
2019-05-03T01:52:05.117Z,7.89
2019-05-03T01:54:32.256Z,7.82
2019-05-03T01:56:59.366Z,7.85
2019-05-03T01:59:26.452Z,7.78
2019-05-03T02:02:13.847Z,7.87
2019-05-03T02:04:53.381Z,7.83
2019-05-03T02:07:22.348Z,7.79
2019-05-03T02:09:49.445Z,7.80
2019-05-03T02:12:16.513Z,7.97
2019-05-03T02:14:45.339Z,7.94
2019-05-03T02:17:12.525Z,7.87
2019-05-03T02:19:42.130Z,7.49
2019-05-03T02:22:12.099Z,7.32
2019-05-03T02:24:39.243Z,7.54
2019-05-03T02:27:12.590Z,7.67
2019-05-03T02:29:42.159Z,7.82
2019-05-03T02:32:12.929Z,7.88
2019-05-03T02:34:39.409Z,8.01
2019-05-03T02:37:06.473Z,7.72
2019-05-03T02:39:33.724Z,7.47
2019-05-03T02:42:10.132Z,7.22
2019-05-03T02:44:29.545Z,7.21
2019-05-03T02:47:20.511Z,6.99
2019-05-03T02:49:56.237Z,6.98
2019-05-03T02:52:37.071Z,7.06
2019-05-03T02:55:06.266Z,7.07
2019-05-03T02:57:35.220Z,7.33
2019-05-03T03:00:05.113Z,7.43
2019-05-03T03:02:32.831Z,7.46
2019-05-03T03:05:05.635Z,7.49
2019-05-03T03:07:33.139Z,7.53
2019-05-03T03:10:05.343Z,7.59
2019-05-03T03:12:35.393Z,7.66
2019-05-03T03:15:06.351Z,7.59
2019-05-03T03:17:37.906Z,7.60
2019-05-03T03:20:07.946Z,7.67
2019-05-03T03:22:41.144Z,7.72
2019-05-03T03:25:17.543Z,7.70
2019-05-03T03:27:46.668Z,7.70
2019-05-03T03:30:38.087Z,7.54
2019-05-03T03:33:09.511Z,7.61
2019-05-03T03:35:42.239Z,7.58
2019-05-03T03:38:15.493Z,7.36
2019-05-03T03:40:45.332Z,7.22
2019-05-03T03:43:15.705Z,7.21
2019-05-03T03:45:45.439Z,7.29
2019-05-03T03:48:15.787Z,7.23
2019-05-03T03:50:46.243Z,7.35
2019-05-03T03:53:21.349Z,7.34
2019-05-03T03:55:51.218Z,7.37
2019-05-03T03:58:22.752Z,7.34
2019-05-03T04:00:49.889Z,7.49
2019-05-03T04:03:20.786Z,7.55
2019-05-03T04:05:49.568Z,7.58
2019-05-03T04:08:16.756Z,7.64
2019-05-03T04:10:46.618Z,7.39
2019-05-03T04:13:15.999Z,7.51
2019-05-03T04:15:56.802Z,7.47
2019-05-03T04:18:45.626Z,7.38
2019-05-03T04:21:16.254Z,7.32
2019-05-03T04:23:46.449Z,7.30
2019-05-03T04:26:16.249Z,7.27
2019-05-03T04:28:45.319Z,7.34
2019-05-03T04:31:16.272Z,7.31
2019-05-03T04:33:48.770Z,7.31
2019-05-03T04:36:16.106Z,7.27
2019-05-03T04:38:45.310Z,7.31
2019-05-03T04:41:12.126Z,7.47
2019-05-03T04:43:39.102Z,7.54
2019-05-03T04:46:16.195Z,7.50
2019-05-03T04:48:51.398Z,7.50
2019-05-03T04:51:18.459Z,7.72
2019-05-03T04:53:50.754Z,7.79
2019-05-03T04:56:17.728Z,7.93
2019-05-03T04:58:45.895Z,8.00
2019-05-03T05:01:15.804Z,8.27
2019-05-03T05:03:46.126Z,8.49
2019-05-03T05:06:18.191Z,8.53
2019-05-03T05:08:55.141Z,8.55
2019-05-03T05:11:22.230Z,8.55
2019-05-03T05:13:49.237Z,8.32
2019-05-03T05:16:18.789Z,8.40
2019-05-03T05:18:52.019Z,8.70
2019-05-03T05:21:27.042Z,8.98
2019-05-03T05:24:05.570Z,9.29
2019-05-03T05:26:48.937Z,9.41
2019-05-03T05:29:18.682Z,9.65
2019-05-03T05:31:45.708Z,9.67
2019-05-03T05:34:15.380Z,9.69
2019-05-03T05:36:42.699Z,9.82
2019-05-03T05:39:10.770Z,9.87
2019-05-03T05:41:37.762Z,9.94
2019-05-03T05:44:05.392Z,10.12
2019-05-03T05:46:38.263Z,10.15
2019-05-03T05:49:10.033Z,10.61
2019-05-03T05:51:37.003Z,10.61
2019-05-03T05:54:06.232Z,10.86
2019-05-03T05:56:47.856Z,11.15
2019-05-03T05:59:34.958Z,11.21
2019-05-03T06:02:08.070Z,11.64
2019-05-03T06:04:35.094Z,11.64
2019-05-03T06:07:31.328Z,11.51
2019-05-03T06:10:14.723Z,11.64
2019-05-03T06:12:55.786Z,11.58
2019-05-03T06:15:44.650Z,11.80
2019-05-03T06:18:24.930Z,11.79
2019-05-03T06:21:05.926Z,11.74
2019-05-03T06:23:37.528Z,11.54
2019-05-03T06:26:25.298Z,11.84
2019-05-03T06:28:54.470Z,11.68
2019-05-03T06:31:34.395Z,11.21
2019-05-03T06:34:01.429Z,11.21
2019-05-03T06:36:31.674Z,10.99
2019-05-03T06:39:02.028Z,11.14
2019-05-03T06:41:28.992Z,11.41
2019-05-03T06:43:56.008Z,11.60
2019-05-03T06:46:42.582Z,11.78
2019-05-03T06:49:10.094Z,11.78
2019-05-03T06:51:39.999Z,11.82
2019-05-03T06:54:05.946Z,12.00
2019-05-03T06:56:35.010Z,11.88
2019-05-03T06:59:02.737Z,11.88
2019-05-03T07:01:36.299Z,11.99
2019-05-03T07:04:24.572Z,11.67
2019-05-03T07:07:09.350Z,11.67
2019-05-03T07:09:46.365Z,11.90
2019-05-03T07:12:14.878Z,11.60
2019-05-03T07:14:42.105Z,11.49
2019-05-03T07:17:09.195Z,11.52
2019-05-03T07:19:36.157Z,11.52
2019-05-03T07:22:05.812Z,11.56
2019-05-03T07:24:40.658Z,11.45
2019-05-03T07:27:10.046Z,11.47
2019-05-03T07:29:37.051Z,11.68
2019-05-03T07:32:05.173Z,11.68
2019-05-03T07:34:32.468Z,11.79
2019-05-03T07:37:00.227Z,11.64
2019-05-03T07:39:27.226Z,11.67
2019-05-03T07:41:56.520Z,11.88
2019-05-03T07:44:30.201Z,11.84
2019-05-03T07:46:57.254Z,12.01
2019-05-03T07:49:28.903Z,12.01
2019-05-03T07:51:58.222Z,11.74
2019-05-03T07:54:25.256Z,11.60
2019-05-03T07:56:57.491Z,11.78
2019-05-03T07:59:25.050Z,12.05
2019-05-03T08:01:57.309Z,11.87
2019-05-03T08:04:25.513Z,11.93
2019-05-03T08:06:54.800Z,12.06
2019-05-03T08:09:21.570Z,12.09
2019-05-03T08:11:49.751Z,12.29
2019-05-03T08:14:18.229Z,12.20
2019-05-03T08:16:45.676Z,12.08
2019-05-03T08:19:17.764Z,12.34
2019-05-03T08:21:47.829Z,12.34
2019-05-03T08:24:15.044Z,12.32
2019-05-03T08:26:42.168Z,12.22
2019-05-03T08:29:18.566Z,12.10
2019-05-03T08:32:07.746Z,12.17
2019-05-03T08:34:45.412Z,12.28
2019-05-03T08:37:27.974Z,12.42
2019-05-03T08:40:01.286Z,12.40
2019-05-03T08:42:28.281Z,12.55
2019-05-03T08:44:55.441Z,12.68
2019-05-03T08:47:24.778Z,12.84
2019-05-03T08:49:51.921Z,12.81
2019-05-03T08:52:27.309Z,12.48
2019-05-03T08:55:00.278Z,12.27
2019-05-03T08:57:27.269Z,12.09
2019-05-03T08:59:55.977Z,12.09
2019-05-03T09:02:22.938Z,12.14
2019-05-03T09:04:49.909Z,12.06
2019-05-03T09:07:18.340Z,11.87
2019-05-03T09:10:05.495Z,11.90
2019-05-03T09:12:55.838Z,11.94
2019-05-03T09:15:24.528Z,11.80
2019-05-03T09:17:51.742Z,11.80
2019-05-03T09:20:18.731Z,11.76
2019-05-03T09:22:47.415Z,11.64
2019-05-03T09:25:15.480Z,11.67
2019-05-03T09:27:47.782Z,11.58
2019-05-03T09:30:17.694Z,11.81
2019-05-03T09:32:55.719Z,11.97
2019-05-03T09:35:32.048Z,12.10
2019-05-03T09:37:55.457Z,12.06
2019-05-03T09:40:24.474Z,12.19
2019-05-03T09:42:51.330Z,12.24
2019-05-03T09:45:18.368Z,12.32
2019-05-03T09:47:52.131Z,12.38
2019-05-03T09:50:19.102Z,12.55
2019-05-03T09:52:50.448Z,12.58
2019-05-03T09:55:25.244Z,12.70
2019-05-03T09:57:55.555Z,12.58
2019-05-03T10:00:24.513Z,12.36
2019-05-03T10:02:51.559Z,12.38
2019-05-03T10:05:18.881Z,12.61
2019-05-03T10:07:48.877Z,12.52
2019-05-03T10:10:15.840Z,12.50
2019-05-03T10:12:42.824Z,12.44
2019-05-03T10:15:15.315Z,12.61
2019-05-03T10:17:49.016Z,12.60
2019-05-03T10:20:18.363Z,12.77
2019-05-03T10:22:47.736Z,12.67
2019-05-03T10:25:16.781Z,12.53
2019-05-03T10:27:51.020Z,12.82
2019-05-03T10:30:25.762Z,12.79
2019-05-03T10:32:59.655Z,12.81
2019-05-03T10:35:29.540Z,13.02
2019-05-03T10:37:56.520Z,13.04
2019-05-03T10:40:31.884Z,13.19
2019-05-03T10:43:02.087Z,13.20
2019-05-03T10:45:29.032Z,13.16
2019-05-03T10:47:56.011Z,13.29
2019-05-03T10:50:25.208Z,12.85
2019-05-03T10:53:09.252Z,12.65
2019-05-03T10:55:36.337Z,11.95
2019-05-03T10:58:17.555Z,11.69
2019-05-03T11:00:52.729Z,11.37
2019-05-03T11:03:18.592Z,11.12
2019-05-03T11:05:46.781Z,11.12
2019-05-03T11:08:14.549Z,10.94
2019-05-03T11:10:44.833Z,10.99
2019-05-03T11:13:16.019Z,10.99
2019-05-03T11:15:44.747Z,10.99
2019-05-03T11:18:11.730Z,11.53
2019-05-03T11:20:38.714Z,11.53
2019-05-03T11:23:07.461Z,11.50
2019-05-03T11:25:34.896Z,11.51
2019-05-03T11:28:06.202Z,11.65
2019-05-03T11:30:36.195Z,11.78
2019-05-03T11:33:11.426Z,11.91
2019-05-03T11:35:56.775Z,12.08
2019-05-03T11:38:30.066Z,12.21
2019-05-03T11:40:57.035Z,12.36
2019-05-03T11:43:29.179Z,12.24
2019-05-03T11:45:56.141Z,12.43
2019-05-03T11:48:25.115Z,12.32
2019-05-03T11:50:58.352Z,12.51
2019-05-03T11:53:25.356Z,12.62
2019-05-03T11:55:52.381Z,12.85
2019-05-03T11:58:27.026Z,12.89
2019-05-03T12:01:21.156Z,13.19
2019-05-03T12:03:52.303Z,13.37
2019-05-03T12:06:19.286Z,13.27
2019-05-03T12:08:48.588Z,13.45
2019-05-03T12:11:15.647Z,13.26
2019-05-03T12:13:42.649Z,12.81
2019-05-03T12:16:20.000Z,12.86
2019-05-03T12:18:50.243Z,12.73
2019-05-03T12:21:13.011Z,12.47
2019-05-03T12:23:41.582Z,12.56
2019-05-03T12:26:12.905Z,12.53
2019-05-03T12:28:37.757Z,12.59
2019-05-03T12:31:25.802Z,12.65
2019-05-03T12:33:46.584Z,12.69
2019-05-03T12:36:15.705Z,12.61
2019-05-03T12:38:42.665Z,12.61
2019-05-03T12:41:09.612Z,12.70
2019-05-03T12:43:37.405Z,12.60
2019-05-03T12:46:08.452Z,12.91
2019-05-03T12:48:35.716Z,12.91
2019-05-03T12:51:03.707Z,13.03
2019-05-03T12:53:31.610Z,13.12
2019-05-03T12:55:58.591Z,13.03
2019-05-03T12:58:46.747Z,13.05
2019-05-03T13:01:22.148Z,13.17
2019-05-03T13:04:00.615Z,13.14
2019-05-03T13:06:31.375Z,13.09
2019-05-03T13:09:00.042Z,13.15
2019-05-03T13:11:36.464Z,13.01
2019-05-03T13:14:04.774Z,12.47
2019-05-03T13:16:32.052Z,12.19
2019-05-03T13:18:59.542Z,11.97
2019-05-03T13:21:28.705Z,11.40
2019-05-03T13:23:55.736Z,11.29
2019-05-03T13:26:22.722Z,11.36
2019-05-03T13:28:59.479Z,11.55
2019-05-03T13:31:25.424Z,11.64
2019-05-03T13:33:54.769Z,11.70
2019-05-03T13:36:21.616Z,11.70
2019-05-03T13:38:48.584Z,11.94
2019-05-03T13:41:16.953Z,11.85
2019-05-03T13:43:45.441Z,11.91
2019-05-03T13:46:12.682Z,12.10
2019-05-03T13:48:45.288Z,12.38
2019-05-03T13:51:10.323Z,12.50
2019-05-03T13:53:37.325Z,12.50
2019-05-03T13:56:11.057Z,12.52
2019-05-03T13:58:38.006Z,12.24
2019-05-03T14:01:05.480Z,11.92
2019-05-03T14:03:35.020Z,11.95
2019-05-03T14:06:01.893Z,11.87
2019-05-03T14:08:31.086Z,11.85
2019-05-03T14:10:58.158Z,11.75
2019-05-03T14:13:25.165Z,11.64
2019-05-03T14:15:52.302Z,11.72
2019-05-03T14:18:19.286Z,11.78
2019-05-03T14:20:55.210Z,11.86
2019-05-03T14:23:22.421Z,11.89
2019-05-03T14:25:49.403Z,11.86
2019-05-03T14:28:16.358Z,11.99
2019-05-03T14:30:45.569Z,12.11
2019-05-03T14:33:12.528Z,12.07
2019-05-03T14:35:39.485Z,11.94
2019-05-03T14:38:06.457Z,11.80
2019-05-03T14:40:34.794Z,11.65
2019-05-03T14:43:04.852Z,11.73
2019-05-03T14:45:31.834Z,11.80
2019-05-03T14:48:00.706Z,11.86
2019-05-03T14:50:27.811Z,11.84
2019-05-03T14:52:57.041Z,11.96
2019-05-03T14:55:36.412Z,12.00
2019-05-03T14:58:21.604Z,11.69
2019-05-03T15:01:04.827Z,11.64
2019-05-03T15:03:35.076Z,11.44
2019-05-03T15:06:05.172Z,11.41
2019-05-03T15:08:35.089Z,11.39
2019-05-03T15:11:05.280Z,11.25
2019-05-03T15:13:32.436Z,11.07
2019-05-03T15:15:59.457Z,11.12
2019-05-03T15:18:26.424Z,11.00
2019-05-03T15:20:54.928Z,10.90
2019-05-03T15:23:22.197Z,10.73
2019-05-03T15:25:52.124Z,10.73
2019-05-03T15:28:19.087Z,10.98
2019-05-03T15:30:47.262Z,10.99
2019-05-03T15:33:15.223Z,11.14
2019-05-03T15:35:46.521Z,10.93
2019-05-03T15:38:14.505Z,10.93
2019-05-03T15:40:46.180Z,11.00
2019-05-03T15:43:28.934Z,11.04
2019-05-03T15:46:21.922Z,11.20
2019-05-03T15:48:55.759Z,11.12
2019-05-03T15:51:24.423Z,10.94
2019-05-03T15:53:55.188Z,10.84
2019-05-03T15:56:27.158Z,10.84
2019-05-03T15:58:55.179Z,10.86
2019-05-03T16:01:27.390Z,10.89
2019-05-03T16:03:59.595Z,10.95
2019-05-03T16:06:26.618Z,10.98
2019-05-03T16:08:56.578Z,10.98
2019-05-03T16:11:25.428Z,10.95
2019-05-03T16:13:52.448Z,11.10
2019-05-03T16:16:19.492Z,11.10
2019-05-03T16:18:46.467Z,11.11
2019-05-03T16:21:14.613Z,10.97
2019-05-03T16:23:46.297Z,10.45
2019-05-03T16:26:12.125Z,10.45
2019-05-03T16:28:49.242Z,10.30
2019-05-03T16:31:18.800Z,10.27
2019-05-03T16:33:45.825Z,10.15
2019-05-03T16:36:14.838Z,10.11
2019-05-03T16:38:44.887Z,9.92
2019-05-03T16:41:12.001Z,10.09
2019-05-03T16:43:39.016Z,10.09
2019-05-03T16:46:06.012Z,10.13
2019-05-03T16:48:33.010Z,10.05
2019-05-03T16:51:04.580Z,10.05
2019-05-03T16:53:34.891Z,10.02
2019-05-03T16:56:04.958Z,10.05
2019-05-03T16:58:31.961Z,10.05
2019-05-03T17:01:01.759Z,10.13
2019-05-03T17:03:41.454Z,10.13
2019-05-03T17:06:45.989Z,10.22
2019-05-03T17:09:35.427Z,10.21
2019-05-03T17:12:25.529Z,9.84
2019-05-03T17:14:54.363Z,9.43
2019-05-03T17:17:25.212Z,9.22
2019-05-03T17:19:52.254Z,9.16
2019-05-03T17:22:25.042Z,8.96
2019-05-03T17:24:55.558Z,8.97
2019-05-03T17:27:27.023Z,9.21
2019-05-03T17:29:55.275Z,9.15
2019-05-03T17:32:24.425Z,9.02
2019-05-03T17:34:56.753Z,9.08
2019-05-03T17:37:26.389Z,9.01
2019-05-03T17:40:16.075Z,8.91
2019-05-03T17:43:10.240Z,8.97
2019-05-03T17:45:40.869Z,8.93
2019-05-03T17:48:10.321Z,8.57
2019-05-03T17:50:40.306Z,8.43
2019-05-03T17:53:25.370Z,8.51
2019-05-03T17:55:59.211Z,8.33
2019-05-03T17:58:35.523Z,8.28
2019-05-03T18:01:22.749Z,8.33
2019-05-03T18:04:03.942Z,8.41
2019-05-03T18:06:25.575Z,8.48
2019-05-03T18:09:27.556Z,8.55
2019-05-03T18:11:57.516Z,8.49
2019-05-03T18:14:30.054Z,8.47
2019-05-03T18:17:02.535Z,8.41
2019-05-03T18:19:29.501Z,8.31
2019-05-03T18:21:59.166Z,8.42
2019-05-03T18:24:28.199Z,8.48
2019-05-03T18:26:57.074Z,8.49
2019-05-03T18:29:25.267Z,8.61
2019-05-03T18:31:55.071Z,8.73
2019-05-03T18:34:23.049Z,8.63
2019-05-03T18:36:54.090Z,8.69
2019-05-03T18:39:21.087Z,8.52
2019-05-03T18:41:48.060Z,8.36
2019-05-03T18:44:40.606Z,8.40
2019-05-03T18:47:11.467Z,8.28
2019-05-03T18:49:38.430Z,8.29
2019-05-03T18:52:05.399Z,8.34
2019-05-03T18:54:39.383Z,8.33
2019-05-03T18:57:07.819Z,8.15
2019-05-03T18:59:34.880Z,8.12
2019-05-03T19:02:01.840Z,8.15
2019-05-03T19:04:42.072Z,8.18
2019-05-03T19:07:32.129Z,8.29
2019-05-03T19:10:16.795Z,8.33
2019-05-03T19:12:55.209Z,8.43
2019-05-03T19:15:22.424Z,8.37
2019-05-03T19:18:12.678Z,8.45
2019-05-03T19:20:41.367Z,8.44
2019-05-03T19:23:10.515Z,8.51
2019-05-03T19:25:45.826Z,8.61
2019-05-03T19:28:10.666Z,8.60
2019-05-03T19:30:44.463Z,8.69
2019-05-03T19:33:15.516Z,8.58
2019-05-03T19:35:44.447Z,8.57
2019-05-03T19:38:11.618Z,8.61
2019-05-03T19:40:38.582Z,8.52
2019-05-03T19:43:07.096Z,8.73
2019-05-03T19:45:35.804Z,8.82
2019-05-03T19:48:04.918Z,8.64
2019-05-03T19:50:32.153Z,8.52
2019-05-03T19:53:11.416Z,8.66
2019-05-03T19:55:40.683Z,8.62
2019-05-03T19:58:07.686Z,8.34
2019-05-03T20:00:47.192Z,8.20
2019-05-03T20:03:20.113Z,8.12
2019-05-03T20:05:59.324Z,8.10
2019-05-03T20:08:35.925Z,8.06
2019-05-03T20:11:17.497Z,7.97
2019-05-03T20:13:46.090Z,7.94
2019-05-03T20:16:15.787Z,8.03
2019-05-03T20:18:45.099Z,8.13
2019-05-03T20:21:14.974Z,8.13
2019-05-03T20:23:42.229Z,7.97
2019-05-03T20:26:09.207Z,8.00
2019-05-03T20:28:36.172Z,8.03
2019-05-03T20:31:05.785Z,8.06
2019-05-03T20:33:35.157Z,8.02
2019-05-03T20:36:01.676Z,8.04
2019-05-03T20:38:31.713Z,8.15
2019-05-03T20:40:58.669Z,7.67
2019-05-03T20:43:47.949Z,7.77
2019-05-03T20:46:18.348Z,7.82
2019-05-03T20:48:47.532Z,7.77
2019-05-03T20:51:14.956Z,7.73
2019-05-03T20:53:42.061Z,7.73
2019-05-03T20:56:10.356Z,7.62
2019-05-03T20:58:45.140Z,7.59
2019-05-03T21:01:12.115Z,7.62
2019-05-03T21:03:41.478Z,7.61
2019-05-03T21:06:09.956Z,7.62
2019-05-03T21:08:52.246Z,7.57
2019-05-03T21:11:11.959Z,7.49
2019-05-03T21:13:45.802Z,7.47
2019-05-03T21:16:38.774Z,7.48
2019-05-03T21:19:24.772Z,7.42
2019-05-03T21:21:58.071Z,7.40
2019-05-03T21:24:38.756Z,7.47
2019-05-03T21:27:05.759Z,7.57
2019-05-03T21:29:35.673Z,7.54
2019-05-03T21:32:05.298Z,7.66
2019-05-03T21:34:34.559Z,7.59
2019-05-03T21:37:04.912Z,7.48
2019-05-03T21:39:31.867Z,7.47
2019-05-03T21:42:01.134Z,7.40
2019-05-03T21:44:32.231Z,7.50
2019-05-03T21:47:40.128Z,7.60
2019-05-03T21:50:14.604Z,7.65
2019-05-03T21:52:47.612Z,7.56
2019-05-03T21:55:14.570Z,7.56
2019-05-03T21:57:41.606Z,7.53
2019-05-03T22:00:11.496Z,7.27
2019-05-03T22:02:38.536Z,7.46
2019-05-03T22:05:05.503Z,7.49
2019-05-03T22:07:32.459Z,7.51
2019-05-03T22:09:59.467Z,7.41
2019-05-03T22:12:26.512Z,7.41
2019-05-03T22:15:05.116Z,7.46
2019-05-03T22:17:51.941Z,7.47
2019-05-03T22:20:26.375Z,7.45
2019-05-03T22:23:22.122Z,7.49
2019-05-03T22:25:49.125Z,7.49
2019-05-03T22:28:16.063Z,7.36
2019-05-03T22:30:45.426Z,7.30
2019-05-03T22:33:14.428Z,7.38
2019-05-03T22:35:41.304Z,7.34
2019-05-03T22:38:08.272Z,7.41
2019-05-03T22:40:38.085Z,7.20
2019-05-03T22:43:05.074Z,7.30
2019-05-03T22:45:34.879Z,7.36
2019-05-03T22:48:05.611Z,7.39
2019-05-03T22:50:34.467Z,7.37
2019-05-03T22:53:08.198Z,7.32
2019-05-03T22:55:35.149Z,7.28
2019-05-03T22:58:02.169Z,7.33
2019-05-03T23:00:29.165Z,7.35
2019-05-03T23:02:56.251Z,7.21
2019-05-03T23:05:23.198Z,7.14
2019-05-03T23:07:50.521Z,7.20
2019-05-03T23:10:17.863Z,7.15
2019-05-03T23:12:47.976Z,7.15
2019-05-03T23:15:18.807Z,7.22
2019-05-03T23:17:48.077Z,7.30
2019-05-03T23:20:25.504Z,7.29
2019-05-03T23:22:54.802Z,7.13
2019-05-03T23:25:25.957Z,7.18
2019-05-03T23:27:55.009Z,7.19
2019-05-03T23:30:24.894Z,7.21
2019-05-03T23:32:54.912Z,7.23
2019-05-03T23:35:21.896Z,7.20
2019-05-03T23:37:48.882Z,7.15
2019-05-03T23:40:15.921Z,7.10
2019-05-03T23:42:43.053Z,7.14
2019-05-03T23:45:14.895Z,7.06
2019-05-03T23:47:45.237Z,7.02
2019-05-03T23:50:15.891Z,7.13
2019-05-03T23:52:45.330Z,7.23
2019-05-03T23:55:36.319Z,7.19
2019-05-03T23:58:08.585Z,7.32
